sensor_id;sensor_type;location;lat;lon;timestamp;P1;durP1;ratioP1;P2;durP2;ratioP2
8421;SDS011;4248;48.196;10.924;2022-07-31T00:00:42;9.47;;;4.80;;
8421;SDS011;4248;48.196;10.924;2022-07-31T00:03:08;8.47;;;5.10;;
8421;SDS011;4248;48.196;10.924;2022-07-31T00:05:34;10.10;;;5.33;;
8421;SDS011;4248;48.196;10.924;2022-07-31T00:08:00;9.73;;;4.90;;
8421;SDS011;4248;48.196;10.924;2022-07-31T00:10:25;9.33;;;5.33;;
8421;SDS011;4248;48.196;10.924;2022-07-31T00:12:51;12.10;;;5.00;;
8421;SDS011;4248;48.196;10.924;2022-07-31T00:15:17;6.83;;;4.20;;
8421;SDS011;4248;48.196;10.924;2022-07-31T00:17:43;6.07;;;5.07;;
8421;SDS011;4248;48.196;10.924;2022-07-31T00:20:09;10.30;;;5.77;;
8421;SDS011;4248;48.196;10.924;2022-07-31T00:22:39;7.57;;;4.80;;
8421;SDS011;4248;48.196;10.924;2022-07-31T00:25:06;11.70;;;5.07;;
8421;SDS011;4248;48.196;10.924;2022-07-31T00:27:32;6.80;;;4.60;;
8421;SDS011;4248;48.196;10.924;2022-07-31T00:29:58;7.00;;;4.77;;
8421;SDS011;4248;48.196;10.924;2022-07-31T00:32:24;6.73;;;5.07;;
8421;SDS011;4248;48.196;10.924;2022-07-31T00:34:49;8.60;;;4.80;;
8421;SDS011;4248;48.196;10.924;2022-07-31T00:37:15;6.03;;;4.60;;
8421;SDS011;4248;48.196;10.924;2022-07-31T00:39:41;8.50;;;4.60;;
8421;SDS011;4248;48.196;10.924;2022-07-31T00:42:19;7.47;;;4.80;;
8421;SDS011;4248;48.196;10.924;2022-07-31T00:44:46;8.73;;;4.67;;
8421;SDS011;4248;48.196;10.924;2022-07-31T00:47:12;5.80;;;4.33;;
8421;SDS011;4248;48.196;10.924;2022-07-31T00:49:38;5.80;;;4.50;;
8421;SDS011;4248;48.196;10.924;2022-07-31T00:52:04;8.30;;;6.13;;
8421;SDS011;4248;48.196;10.924;2022-07-31T00:54:30;7.50;;;5.33;;
8421;SDS011;4248;48.196;10.924;2022-07-31T00:56:55;8.40;;;5.60;;
8421;SDS011;4248;48.196;10.924;2022-07-31T00:59:21;9.90;;;5.90;;
8421;SDS011;4248;48.196;10.924;2022-07-31T01:01:47;9.60;;;6.50;;
8421;SDS011;4248;48.196;10.924;2022-07-31T01:04:12;8.33;;;6.10;;
8421;SDS011;4248;48.196;10.924;2022-07-31T01:06:40;9.27;;;6.50;;
8421;SDS011;4248;48.196;10.924;2022-07-31T01:09:05;7.67;;;6.20;;
8421;SDS011;4248;48.196;10.924;2022-07-31T01:11:41;6.60;;;5.30;;
8421;SDS011;4248;48.196;10.924;2022-07-31T01:14:13;12.57;;;6.80;;
8421;SDS011;4248;48.196;10.924;2022-07-31T01:16:45;7.93;;;5.80;;
8421;SDS011;4248;48.196;10.924;2022-07-31T01:19:28;8.20;;;5.70;;
8421;SDS011;4248;48.196;10.924;2022-07-31T01:28:28;8.40;;;5.80;;
8421;SDS011;4248;48.196;10.924;2022-07-31T01:31:06;9.87;;;5.47;;
8421;SDS011;4248;48.196;10.924;2022-07-31T01:33:39;8.10;;;5.57;;
8421;SDS011;4248;48.196;10.924;2022-07-31T01:36:12;10.13;;;6.17;;
8421;SDS011;4248;48.196;10.924;2022-07-31T01:38:43;9.97;;;5.60;;
8421;SDS011;4248;48.196;10.924;2022-07-31T01:41:12;8.30;;;5.60;;
8421;SDS011;4248;48.196;10.924;2022-07-31T01:43:41;10.20;;;6.00;;
8421;SDS011;4248;48.196;10.924;2022-07-31T01:46:11;6.67;;;5.23;;
8421;SDS011;4248;48.196;10.924;2022-07-31T01:48:39;12.73;;;5.53;;
8421;SDS011;4248;48.196;10.924;2022-07-31T01:51:06;10.03;;;6.03;;
8421;SDS011;4248;48.196;10.924;2022-07-31T01:53:34;9.23;;;6.20;;
8421;SDS011;4248;48.196;10.924;2022-07-31T01:56:03;11.07;;;5.27;;
8421;SDS011;4248;48.196;10.924;2022-07-31T01:58:34;12.83;;;6.40;;
8421;SDS011;4248;48.196;10.924;2022-07-31T02:01:02;11.50;;;6.30;;
8421;SDS011;4248;48.196;10.924;2022-07-31T02:03:29;11.20;;;6.20;;
8421;SDS011;4248;48.196;10.924;2022-07-31T02:05:57;6.70;;;5.67;;
8421;SDS011;4248;48.196;10.924;2022-07-31T02:08:25;7.90;;;5.97;;
8421;SDS011;4248;48.196;10.924;2022-07-31T02:10:52;14.47;;;6.63;;
8421;SDS011;4248;48.196;10.924;2022-07-31T02:13:18;9.87;;;5.90;;
8421;SDS011;4248;48.196;10.924;2022-07-31T02:15:45;10.23;;;6.70;;
8421;SDS011;4248;48.196;10.924;2022-07-31T02:18:11;11.87;;;7.40;;
8421;SDS011;4248;48.196;10.924;2022-07-31T02:20:37;8.70;;;6.57;;
8421;SDS011;4248;48.196;10.924;2022-07-31T02:23:04;10.10;;;6.00;;
8421;SDS011;4248;48.196;10.924;2022-07-31T02:25:30;7.97;;;5.80;;
8421;SDS011;4248;48.196;10.924;2022-07-31T02:27:59;8.93;;;5.83;;
8421;SDS011;4248;48.196;10.924;2022-07-31T02:30:27;15.10;;;5.63;;
8421;SDS011;4248;48.196;10.924;2022-07-31T02:32:55;12.57;;;6.20;;
8421;SDS011;4248;48.196;10.924;2022-07-31T02:35:21;8.40;;;6.40;;
8421;SDS011;4248;48.196;10.924;2022-07-31T02:37:49;14.33;;;5.87;;
8421;SDS011;4248;48.196;10.924;2022-07-31T02:40:16;8.57;;;5.60;;
8421;SDS011;4248;48.196;10.924;2022-07-31T02:42:44;10.13;;;6.23;;
8421;SDS011;4248;48.196;10.924;2022-07-31T02:45:10;11.83;;;6.23;;
8421;SDS011;4248;48.196;10.924;2022-07-31T02:47:37;9.20;;;5.53;;
8421;SDS011;4248;48.196;10.924;2022-07-31T02:50:03;8.90;;;5.77;;
8421;SDS011;4248;48.196;10.924;2022-07-31T02:52:29;10.97;;;5.60;;
8421;SDS011;4248;48.196;10.924;2022-07-31T02:54:56;11.10;;;5.93;;
8421;SDS011;4248;48.196;10.924;2022-07-31T02:57:22;6.10;;;5.33;;
8421;SDS011;4248;48.196;10.924;2022-07-31T02:59:48;9.70;;;6.40;;
8421;SDS011;4248;48.196;10.924;2022-07-31T03:02:13;5.80;;;4.87;;
8421;SDS011;4248;48.196;10.924;2022-07-31T03:04:39;8.00;;;5.63;;
8421;SDS011;4248;48.196;10.924;2022-07-31T03:07:05;6.83;;;5.30;;
8421;SDS011;4248;48.196;10.924;2022-07-31T03:09:30;6.00;;;4.80;;
8421;SDS011;4248;48.196;10.924;2022-07-31T03:11:56;10.37;;;5.13;;
8421;SDS011;4248;48.196;10.924;2022-07-31T03:14:23;8.17;;;6.00;;
8421;SDS011;4248;48.196;10.924;2022-07-31T03:16:51;7.03;;;4.43;;
8421;SDS011;4248;48.196;10.924;2022-07-31T03:19:18;10.37;;;4.70;;
8421;SDS011;4248;48.196;10.924;2022-07-31T03:21:45;6.37;;;4.87;;
8421;SDS011;4248;48.196;10.924;2022-07-31T03:24:12;8.30;;;5.50;;
8421;SDS011;4248;48.196;10.924;2022-07-31T03:26:38;7.90;;;5.27;;
8421;SDS011;4248;48.196;10.924;2022-07-31T03:29:03;8.57;;;5.17;;
8421;SDS011;4248;48.196;10.924;2022-07-31T03:31:29;7.30;;;5.50;;
8421;SDS011;4248;48.196;10.924;2022-07-31T03:33:55;7.40;;;4.67;;
8421;SDS011;4248;48.196;10.924;2022-07-31T03:36:21;8.20;;;5.00;;
8421;SDS011;4248;48.196;10.924;2022-07-31T03:38:48;6.83;;;5.00;;
8421;SDS011;4248;48.196;10.924;2022-07-31T03:41:14;5.50;;;4.80;;
8421;SDS011;4248;48.196;10.924;2022-07-31T03:43:40;12.73;;;4.63;;
8421;SDS011;4248;48.196;10.924;2022-07-31T03:46:07;10.80;;;5.00;;
8421;SDS011;4248;48.196;10.924;2022-07-31T03:48:34;5.43;;;4.23;;
8421;SDS011;4248;48.196;10.924;2022-07-31T03:51:00;9.47;;;4.70;;
8421;SDS011;4248;48.196;10.924;2022-07-31T03:53:27;8.80;;;4.63;;
8421;SDS011;4248;48.196;10.924;2022-07-31T03:55:53;9.70;;;5.03;;
8421;SDS011;4248;48.196;10.924;2022-07-31T03:58:20;6.70;;;4.63;;
8421;SDS011;4248;48.196;10.924;2022-07-31T04:00:47;8.30;;;4.83;;
8421;SDS011;4248;48.196;10.924;2022-07-31T04:03:13;12.67;;;4.60;;
8421;SDS011;4248;48.196;10.924;2022-07-31T04:05:39;6.90;;;4.63;;
8421;SDS011;4248;48.196;10.924;2022-07-31T04:08:06;10.10;;;5.00;;
8421;SDS011;4248;48.196;10.924;2022-07-31T04:10:32;8.73;;;4.87;;
8421;SDS011;4248;48.196;10.924;2022-07-31T04:13:00;7.37;;;4.80;;
8421;SDS011;4248;48.196;10.924;2022-07-31T04:15:29;7.13;;;3.93;;
8421;SDS011;4248;48.196;10.924;2022-07-31T04:17:54;6.83;;;5.30;;
8421;SDS011;4248;48.196;10.924;2022-07-31T04:20:20;8.37;;;4.30;;
8421;SDS011;4248;48.196;10.924;2022-07-31T04:22:46;7.73;;;4.50;;
8421;SDS011;4248;48.196;10.924;2022-07-31T04:25:12;6.90;;;4.90;;
8421;SDS011;4248;48.196;10.924;2022-07-31T04:27:38;7.93;;;4.77;;
8421;SDS011;4248;48.196;10.924;2022-07-31T04:30:04;7.23;;;3.97;;
8421;SDS011;4248;48.196;10.924;2022-07-31T04:32:30;6.17;;;4.00;;
8421;SDS011;4248;48.196;10.924;2022-07-31T04:34:55;5.53;;;4.37;;
8421;SDS011;4248;48.196;10.924;2022-07-31T04:37:21;6.30;;;4.67;;
8421;SDS011;4248;48.196;10.924;2022-07-31T04:39:47;8.77;;;4.60;;
8421;SDS011;4248;48.196;10.924;2022-07-31T04:42:13;10.13;;;4.30;;
8421;SDS011;4248;48.196;10.924;2022-07-31T04:44:39;6.97;;;4.57;;
8421;SDS011;4248;48.196;10.924;2022-07-31T04:47:05;7.07;;;4.40;;
8421;SDS011;4248;48.196;10.924;2022-07-31T04:49:31;7.90;;;4.20;;
8421;SDS011;4248;48.196;10.924;2022-07-31T04:51:57;6.57;;;4.00;;
8421;SDS011;4248;48.196;10.924;2022-07-31T04:54:26;6.93;;;4.40;;
8421;SDS011;4248;48.196;10.924;2022-07-31T04:56:52;5.57;;;4.00;;
8421;SDS011;4248;48.196;10.924;2022-07-31T04:59:18;8.20;;;4.47;;
8421;SDS011;4248;48.196;10.924;2022-07-31T05:01:46;6.37;;;4.20;;
8421;SDS011;4248;48.196;10.924;2022-07-31T05:04:12;8.60;;;4.03;;
8421;SDS011;4248;48.196;10.924;2022-07-31T05:06:39;4.80;;;3.40;;
8421;SDS011;4248;48.196;10.924;2022-07-31T05:09:10;4.60;;;3.30;;
8421;SDS011;4248;48.196;10.924;2022-07-31T05:11:37;6.63;;;3.63;;
8421;SDS011;4248;48.196;10.924;2022-07-31T05:14:04;8.73;;;3.30;;
8421;SDS011;4248;48.196;10.924;2022-07-31T05:16:31;6.33;;;3.57;;
8421;SDS011;4248;48.196;10.924;2022-07-31T05:18:57;8.73;;;3.67;;
8421;SDS011;4248;48.196;10.924;2022-07-31T05:21:23;4.70;;;3.07;;
8421;SDS011;4248;48.196;10.924;2022-07-31T05:23:51;9.87;;;3.23;;
8421;SDS011;4248;48.196;10.924;2022-07-31T05:26:17;6.20;;;3.07;;
8421;SDS011;4248;48.196;10.924;2022-07-31T05:28:44;7.27;;;3.37;;
8421;SDS011;4248;48.196;10.924;2022-07-31T05:31:11;8.60;;;3.50;;
8421;SDS011;4248;48.196;10.924;2022-07-31T05:33:37;5.87;;;3.03;;
8421;SDS011;4248;48.196;10.924;2022-07-31T05:36:04;5.40;;;2.93;;
8421;SDS011;4248;48.196;10.924;2022-07-31T05:38:30;7.13;;;3.17;;
8421;SDS011;4248;48.196;10.924;2022-07-31T05:40:56;10.77;;;3.73;;
8421;SDS011;4248;48.196;10.924;2022-07-31T05:43:21;5.37;;;3.20;;
8421;SDS011;4248;48.196;10.924;2022-07-31T05:45:47;5.43;;;3.40;;
8421;SDS011;4248;48.196;10.924;2022-07-31T05:48:13;5.27;;;3.90;;
8421;SDS011;4248;48.196;10.924;2022-07-31T05:50:42;5.87;;;3.40;;
8421;SDS011;4248;48.196;10.924;2022-07-31T05:53:09;9.23;;;3.50;;
8421;SDS011;4248;48.196;10.924;2022-07-31T05:55:37;5.77;;;3.67;;
8421;SDS011;4248;48.196;10.924;2022-07-31T05:58:03;9.40;;;3.63;;
8421;SDS011;4248;48.196;10.924;2022-07-31T06:00:29;8.83;;;3.40;;
8421;SDS011;4248;48.196;10.924;2022-07-31T06:02:55;4.87;;;3.17;;
8421;SDS011;4248;48.196;10.924;2022-07-31T06:05:20;7.13;;;3.10;;
8421;SDS011;4248;48.196;10.924;2022-07-31T06:07:47;5.10;;;3.50;;
8421;SDS011;4248;48.196;10.924;2022-07-31T06:10:14;5.00;;;3.40;;
8421;SDS011;4248;48.196;10.924;2022-07-31T06:12:40;6.40;;;3.30;;
8421;SDS011;4248;48.196;10.924;2022-07-31T06:15:06;10.17;;;3.50;;
8421;SDS011;4248;48.196;10.924;2022-07-31T06:17:32;9.63;;;3.20;;
8421;SDS011;4248;48.196;10.924;2022-07-31T06:19:57;5.20;;;3.40;;
8421;SDS011;4248;48.196;10.924;2022-07-31T06:22:23;7.13;;;3.13;;
8421;SDS011;4248;48.196;10.924;2022-07-31T06:24:49;6.60;;;3.10;;
8421;SDS011;4248;48.196;10.924;2022-07-31T06:27:14;4.93;;;3.20;;
8421;SDS011;4248;48.196;10.924;2022-07-31T06:29:41;6.80;;;4.07;;
8421;SDS011;4248;48.196;10.924;2022-07-31T06:32:06;5.47;;;3.47;;
8421;SDS011;4248;48.196;10.924;2022-07-31T06:34:33;9.33;;;4.00;;
8421;SDS011;4248;48.196;10.924;2022-07-31T06:36:58;9.90;;;3.40;;
8421;SDS011;4248;48.196;10.924;2022-07-31T06:39:24;5.93;;;3.17;;
8421;SDS011;4248;48.196;10.924;2022-07-31T06:41:49;11.73;;;3.47;;
8421;SDS011;4248;48.196;10.924;2022-07-31T06:44:15;6.50;;;3.10;;
8421;SDS011;4248;48.196;10.924;2022-07-31T06:46:43;4.33;;;3.10;;
8421;SDS011;4248;48.196;10.924;2022-07-31T06:49:12;6.40;;;3.00;;
8421;SDS011;4248;48.196;10.924;2022-07-31T06:51:38;7.03;;;3.40;;
8421;SDS011;4248;48.196;10.924;2022-07-31T06:54:04;4.57;;;2.90;;
8421;SDS011;4248;48.196;10.924;2022-07-31T06:56:32;5.63;;;2.60;;
8421;SDS011;4248;48.196;10.924;2022-07-31T06:58:59;5.90;;;3.37;;
8421;SDS011;4248;48.196;10.924;2022-07-31T07:01:25;7.13;;;2.60;;
8421;SDS011;4248;48.196;10.924;2022-07-31T07:03:50;6.63;;;3.07;;
8421;SDS011;4248;48.196;10.924;2022-07-31T07:06:16;7.10;;;3.23;;
8421;SDS011;4248;48.196;10.924;2022-07-31T07:08:43;4.83;;;3.10;;
8421;SDS011;4248;48.196;10.924;2022-07-31T07:11:08;11.83;;;2.97;;
8421;SDS011;4248;48.196;10.924;2022-07-31T07:13:34;7.17;;;3.47;;
8421;SDS011;4248;48.196;10.924;2022-07-31T07:15:59;8.53;;;3.10;;
8421;SDS011;4248;48.196;10.924;2022-07-31T07:18:25;8.13;;;2.90;;
8421;SDS011;4248;48.196;10.924;2022-07-31T07:20:51;3.60;;;2.80;;
8421;SDS011;4248;48.196;10.924;2022-07-31T07:23:17;6.80;;;3.03;;
8421;SDS011;4248;48.196;10.924;2022-07-31T07:25:44;4.07;;;2.43;;
8421;SDS011;4248;48.196;10.924;2022-07-31T07:28:10;4.73;;;2.63;;
8421;SDS011;4248;48.196;10.924;2022-07-31T07:30:35;4.93;;;2.93;;
8421;SDS011;4248;48.196;10.924;2022-07-31T07:33:01;6.80;;;2.93;;
8421;SDS011;4248;48.196;10.924;2022-07-31T07:35:27;4.67;;;2.90;;
8421;SDS011;4248;48.196;10.924;2022-07-31T07:37:53;5.33;;;2.40;;
8421;SDS011;4248;48.196;10.924;2022-07-31T07:40:19;4.57;;;2.90;;
8421;SDS011;4248;48.196;10.924;2022-07-31T07:42:45;4.83;;;2.60;;
8421;SDS011;4248;48.196;10.924;2022-07-31T07:45:11;7.53;;;2.33;;
8421;SDS011;4248;48.196;10.924;2022-07-31T07:47:37;9.03;;;3.37;;
8421;SDS011;4248;48.196;10.924;2022-07-31T07:50:03;9.93;;;3.10;;
8421;SDS011;4248;48.196;10.924;2022-07-31T07:52:30;5.33;;;2.90;;
8421;SDS011;4248;48.196;10.924;2022-07-31T07:54:55;4.83;;;2.70;;
8421;SDS011;4248;48.196;10.924;2022-07-31T07:57:21;7.77;;;3.43;;
8421;SDS011;4248;48.196;10.924;2022-07-31T07:59:47;4.80;;;2.80;;
8421;SDS011;4248;48.196;10.924;2022-07-31T08:02:13;6.40;;;2.63;;
8421;SDS011;4248;48.196;10.924;2022-07-31T08:04:39;4.43;;;2.87;;
8421;SDS011;4248;48.196;10.924;2022-07-31T08:07:05;6.60;;;2.93;;
8421;SDS011;4248;48.196;10.924;2022-07-31T08:09:31;5.93;;;2.40;;
8421;SDS011;4248;48.196;10.924;2022-07-31T08:11:57;7.23;;;2.73;;
8421;SDS011;4248;48.196;10.924;2022-07-31T08:14:23;7.13;;;2.67;;
8421;SDS011;4248;48.196;10.924;2022-07-31T08:16:49;5.20;;;3.20;;
8421;SDS011;4248;48.196;10.924;2022-07-31T08:19:15;5.43;;;3.20;;
8421;SDS011;4248;48.196;10.924;2022-07-31T08:21:41;9.13;;;2.60;;
8421;SDS011;4248;48.196;10.924;2022-07-31T08:24:07;5.23;;;2.60;;
8421;SDS011;4248;48.196;10.924;2022-07-31T08:26:34;5.70;;;2.73;;
8421;SDS011;4248;48.196;10.924;2022-07-31T08:29:30;4.23;;;2.17;;
8421;SDS011;4248;48.196;10.924;2022-07-31T08:31:55;6.57;;;2.43;;
8421;SDS011;4248;48.196;10.924;2022-07-31T08:34:21;4.97;;;2.80;;
8421;SDS011;4248;48.196;10.924;2022-07-31T08:36:47;4.33;;;2.20;;
8421;SDS011;4248;48.196;10.924;2022-07-31T08:39:13;7.00;;;2.40;;
8421;SDS011;4248;48.196;10.924;2022-07-31T08:41:38;4.87;;;2.23;;
8421;SDS011;4248;48.196;10.924;2022-07-31T08:44:05;4.03;;;2.30;;
8421;SDS011;4248;48.196;10.924;2022-07-31T08:46:40;4.70;;;2.03;;
8421;SDS011;4248;48.196;10.924;2022-07-31T08:49:07;6.67;;;2.43;;
8421;SDS011;4248;48.196;10.924;2022-07-31T08:51:37;4.43;;;2.50;;
8421;SDS011;4248;48.196;10.924;2022-07-31T08:54:05;3.67;;;2.23;;
8421;SDS011;4248;48.196;10.924;2022-07-31T08:56:32;4.20;;;2.40;;
8421;SDS011;4248;48.196;10.924;2022-07-31T08:58:59;4.50;;;2.87;;
8421;SDS011;4248;48.196;10.924;2022-07-31T09:01:25;8.03;;;2.70;;
8421;SDS011;4248;48.196;10.924;2022-07-31T09:03:52;3.83;;;1.97;;
8421;SDS011;4248;48.196;10.924;2022-07-31T09:06:18;5.27;;;2.23;;
8421;SDS011;4248;48.196;10.924;2022-07-31T09:08:44;4.10;;;2.57;;
8421;SDS011;4248;48.196;10.924;2022-07-31T09:11:11;4.23;;;2.10;;
8421;SDS011;4248;48.196;10.924;2022-07-31T09:13:37;4.30;;;2.23;;
8421;SDS011;4248;48.196;10.924;2022-07-31T09:16:04;5.43;;;2.40;;
8421;SDS011;4248;48.196;10.924;2022-07-31T09:18:32;3.43;;;1.90;;
8421;SDS011;4248;48.196;10.924;2022-07-31T09:20:59;4.40;;;2.23;;
8421;SDS011;4248;48.196;10.924;2022-07-31T09:23:27;4.93;;;2.23;;
8421;SDS011;4248;48.196;10.924;2022-07-31T09:25:54;3.03;;;1.87;;
8421;SDS011;4248;48.196;10.924;2022-07-31T09:28:32;5.53;;;1.93;;
8421;SDS011;4248;48.196;10.924;2022-07-31T09:30:59;5.73;;;2.10;;
8421;SDS011;4248;48.196;10.924;2022-07-31T09:33:26;3.47;;;2.00;;
8421;SDS011;4248;48.196;10.924;2022-07-31T09:35:53;5.43;;;2.27;;
8421;SDS011;4248;48.196;10.924;2022-07-31T09:38:19;6.87;;;2.20;;
8421;SDS011;4248;48.196;10.924;2022-07-31T09:40:45;3.20;;;1.80;;
8421;SDS011;4248;48.196;10.924;2022-07-31T09:43:17;3.10;;;2.30;;
8421;SDS011;4248;48.196;10.924;2022-07-31T09:45:58;4.40;;;2.23;;
8421;SDS011;4248;48.196;10.924;2022-07-31T09:48:24;7.90;;;2.23;;
8421;SDS011;4248;48.196;10.924;2022-07-31T09:53:37;12.83;;;2.17;;
8421;SDS011;4248;48.196;10.924;2022-07-31T09:56:04;5.53;;;2.30;;
8421;SDS011;4248;48.196;10.924;2022-07-31T09:58:32;3.23;;;1.80;;
8421;SDS011;4248;48.196;10.924;2022-07-31T10:00:57;3.60;;;2.10;;
8421;SDS011;4248;48.196;10.924;2022-07-31T10:03:24;3.10;;;1.87;;
8421;SDS011;4248;48.196;10.924;2022-07-31T10:05:50;3.27;;;1.87;;
8421;SDS011;4248;48.196;10.924;2022-07-31T10:08:19;5.60;;;2.13;;
8421;SDS011;4248;48.196;10.924;2022-07-31T10:10:46;7.10;;;2.60;;
8421;SDS011;4248;48.196;10.924;2022-07-31T10:13:14;4.63;;;2.13;;
8421;SDS011;4248;48.196;10.924;2022-07-31T10:15:44;4.70;;;2.27;;
8421;SDS011;4248;48.196;10.924;2022-07-31T10:18:11;8.13;;;2.20;;
8421;SDS011;4248;48.196;10.924;2022-07-31T10:20:37;5.17;;;2.33;;
8421;SDS011;4248;48.196;10.924;2022-07-31T10:23:09;3.80;;;2.10;;
8421;SDS011;4248;48.196;10.924;2022-07-31T10:25:47;4.03;;;1.80;;
8421;SDS011;4248;48.196;10.924;2022-07-31T10:28:15;9.47;;;2.67;;
8421;SDS011;4248;48.196;10.924;2022-07-31T10:30:43;3.73;;;1.93;;
8421;SDS011;4248;48.196;10.924;2022-07-31T10:33:10;5.70;;;2.03;;
8421;SDS011;4248;48.196;10.924;2022-07-31T10:35:40;3.47;;;2.13;;
8421;SDS011;4248;48.196;10.924;2022-07-31T10:38:24;7.43;;;1.77;;
8421;SDS011;4248;48.196;10.924;2022-07-31T10:41:08;5.13;;;2.07;;
8421;SDS011;4248;48.196;10.924;2022-07-31T10:46:12;5.80;;;1.80;;
8421;SDS011;4248;48.196;10.924;2022-07-31T10:48:48;3.83;;;1.70;;
8421;SDS011;4248;48.196;10.924;2022-07-31T10:51:15;8.77;;;3.13;;
8421;SDS011;4248;48.196;10.924;2022-07-31T10:53:44;6.53;;;2.40;;
8421;SDS011;4248;48.196;10.924;2022-07-31T10:56:18;4.20;;;1.70;;
8421;SDS011;4248;48.196;10.924;2022-07-31T10:58:47;5.43;;;2.57;;
8421;SDS011;4248;48.196;10.924;2022-07-31T11:01:14;3.00;;;1.80;;
8421;SDS011;4248;48.196;10.924;2022-07-31T11:03:59;5.10;;;2.13;;
8421;SDS011;4248;48.196;10.924;2022-07-31T11:06:31;5.20;;;1.93;;
8421;SDS011;4248;48.196;10.924;2022-07-31T11:09:05;7.13;;;2.30;;
8421;SDS011;4248;48.196;10.924;2022-07-31T11:11:32;5.10;;;2.13;;
8421;SDS011;4248;48.196;10.924;2022-07-31T11:13:59;4.17;;;2.07;;
8421;SDS011;4248;48.196;10.924;2022-07-31T11:16:25;7.20;;;2.10;;
8421;SDS011;4248;48.196;10.924;2022-07-31T11:18:55;4.97;;;1.80;;
8421;SDS011;4248;48.196;10.924;2022-07-31T11:21:55;3.87;;;1.90;;
8421;SDS011;4248;48.196;10.924;2022-07-31T11:26:47;5.37;;;2.57;;
8421;SDS011;4248;48.196;10.924;2022-07-31T11:29:23;5.87;;;1.90;;
8421;SDS011;4248;48.196;10.924;2022-07-31T11:31:50;3.90;;;2.17;;
8421;SDS011;4248;48.196;10.924;2022-07-31T11:34:16;4.13;;;2.23;;
8421;SDS011;4248;48.196;10.924;2022-07-31T11:36:41;3.60;;;2.30;;
8421;SDS011;4248;48.196;10.924;2022-07-31T11:39:10;3.33;;;2.37;;
8421;SDS011;4248;48.196;10.924;2022-07-31T11:41:36;4.00;;;2.10;;
8421;SDS011;4248;48.196;10.924;2022-07-31T11:44:02;3.33;;;1.90;;
8421;SDS011;4248;48.196;10.924;2022-07-31T11:46:30;6.27;;;2.20;;
8421;SDS011;4248;48.196;10.924;2022-07-31T11:48:57;4.93;;;1.80;;
8421;SDS011;4248;48.196;10.924;2022-07-31T11:51:24;4.10;;;1.90;;
8421;SDS011;4248;48.196;10.924;2022-07-31T11:53:51;5.40;;;2.47;;
8421;SDS011;4248;48.196;10.924;2022-07-31T11:56:19;3.23;;;1.90;;
8421;SDS011;4248;48.196;10.924;2022-07-31T11:58:46;3.67;;;1.97;;
8421;SDS011;4248;48.196;10.924;2022-07-31T12:01:13;4.40;;;2.23;;
8421;SDS011;4248;48.196;10.924;2022-07-31T12:03:39;4.70;;;1.90;;
8421;SDS011;4248;48.196;10.924;2022-07-31T12:06:07;3.40;;;1.70;;
8421;SDS011;4248;48.196;10.924;2022-07-31T12:08:33;5.43;;;1.93;;
8421;SDS011;4248;48.196;10.924;2022-07-31T12:10:59;3.47;;;1.50;;
8421;SDS011;4248;48.196;10.924;2022-07-31T12:13:26;4.07;;;2.00;;
8421;SDS011;4248;48.196;10.924;2022-07-31T12:18:23;4.53;;;1.83;;
8421;SDS011;4248;48.196;10.924;2022-07-31T12:20:53;2.50;;;1.60;;
8421;SDS011;4248;48.196;10.924;2022-07-31T12:23:21;6.17;;;2.10;;
8421;SDS011;4248;48.196;10.924;2022-07-31T12:25:47;3.43;;;1.77;;
8421;SDS011;4248;48.196;10.924;2022-07-31T12:28:13;2.80;;;1.43;;
8421;SDS011;4248;48.196;10.924;2022-07-31T12:30:39;3.90;;;2.10;;
8421;SDS011;4248;48.196;10.924;2022-07-31T12:33:06;3.93;;;1.90;;
8421;SDS011;4248;48.196;10.924;2022-07-31T12:38:06;3.00;;;1.63;;
8421;SDS011;4248;48.196;10.924;2022-07-31T12:40:32;3.63;;;1.80;;
8421;SDS011;4248;48.196;10.924;2022-07-31T12:42:58;2.60;;;1.60;;
8421;SDS011;4248;48.196;10.924;2022-07-31T12:45:34;4.83;;;1.90;;
8421;SDS011;4248;48.196;10.924;2022-07-31T12:48:02;6.90;;;1.97;;
8421;SDS011;4248;48.196;10.924;2022-07-31T12:50:29;3.20;;;1.90;;
8421;SDS011;4248;48.196;10.924;2022-07-31T12:52:57;3.37;;;1.70;;
8421;SDS011;4248;48.196;10.924;2022-07-31T12:55:25;4.20;;;1.90;;
8421;SDS011;4248;48.196;10.924;2022-07-31T12:57:53;6.00;;;1.90;;
8421;SDS011;4248;48.196;10.924;2022-07-31T13:00:19;3.33;;;1.73;;
8421;SDS011;4248;48.196;10.924;2022-07-31T13:02:47;5.03;;;2.00;;
8421;SDS011;4248;48.196;10.924;2022-07-31T13:05:13;2.70;;;1.70;;
8421;SDS011;4248;48.196;10.924;2022-07-31T13:07:39;9.73;;;1.87;;
8421;SDS011;4248;48.196;10.924;2022-07-31T13:10:05;5.57;;;1.80;;
8421;SDS011;4248;48.196;10.924;2022-07-31T13:12:32;2.90;;;1.70;;
8421;SDS011;4248;48.196;10.924;2022-07-31T13:14:57;4.80;;;1.97;;
8421;SDS011;4248;48.196;10.924;2022-07-31T13:17:23;3.10;;;2.00;;
8421;SDS011;4248;48.196;10.924;2022-07-31T13:19:49;4.30;;;1.87;;
8421;SDS011;4248;48.196;10.924;2022-07-31T13:22:14;3.67;;;1.90;;
8421;SDS011;4248;48.196;10.924;2022-07-31T13:24:40;5.27;;;2.20;;
8421;SDS011;4248;48.196;10.924;2022-07-31T13:27:05;3.73;;;1.60;;
8421;SDS011;4248;48.196;10.924;2022-07-31T13:29:32;3.47;;;1.70;;
8421;SDS011;4248;48.196;10.924;2022-07-31T13:31:58;6.80;;;1.77;;
8421;SDS011;4248;48.196;10.924;2022-07-31T13:34:24;7.23;;;1.83;;
8421;SDS011;4248;48.196;10.924;2022-07-31T13:36:50;3.07;;;1.80;;
8421;SDS011;4248;48.196;10.924;2022-07-31T13:39:15;3.30;;;2.00;;
8421;SDS011;4248;48.196;10.924;2022-07-31T13:41:41;5.37;;;1.90;;
8421;SDS011;4248;48.196;10.924;2022-07-31T13:44:07;4.57;;;1.80;;
8421;SDS011;4248;48.196;10.924;2022-07-31T13:46:33;4.67;;;1.70;;
8421;SDS011;4248;48.196;10.924;2022-07-31T13:48:59;4.17;;;1.60;;
8421;SDS011;4248;48.196;10.924;2022-07-31T13:51:25;3.83;;;1.90;;
8421;SDS011;4248;48.196;10.924;2022-07-31T13:53:51;3.03;;;1.80;;
8421;SDS011;4248;48.196;10.924;2022-07-31T13:56:17;3.20;;;1.80;;
8421;SDS011;4248;48.196;10.924;2022-07-31T13:58:44;5.40;;;2.07;;
8421;SDS011;4248;48.196;10.924;2022-07-31T14:01:10;3.13;;;1.63;;
8421;SDS011;4248;48.196;10.924;2022-07-31T14:03:36;3.40;;;1.90;;
8421;SDS011;4248;48.196;10.924;2022-07-31T14:06:02;5.57;;;2.10;;
8421;SDS011;4248;48.196;10.924;2022-07-31T14:08:28;3.03;;;1.83;;
8421;SDS011;4248;48.196;10.924;2022-07-31T14:10:54;5.30;;;1.97;;
8421;SDS011;4248;48.196;10.924;2022-07-31T14:13:22;5.67;;;2.23;;
8421;SDS011;4248;48.196;10.924;2022-07-31T14:15:48;3.87;;;2.10;;
8421;SDS011;4248;48.196;10.924;2022-07-31T14:18:14;3.97;;;2.00;;
8421;SDS011;4248;48.196;10.924;2022-07-31T14:20:40;4.57;;;2.33;;
8421;SDS011;4248;48.196;10.924;2022-07-31T14:23:05;3.80;;;1.67;;
8421;SDS011;4248;48.196;10.924;2022-07-31T14:25:34;10.30;;;1.80;;
8421;SDS011;4248;48.196;10.924;2022-07-31T14:28:00;3.90;;;1.70;;
8421;SDS011;4248;48.196;10.924;2022-07-31T14:30:26;3.63;;;1.60;;
8421;SDS011;4248;48.196;10.924;2022-07-31T14:32:53;3.10;;;1.60;;
8421;SDS011;4248;48.196;10.924;2022-07-31T14:35:19;2.80;;;1.57;;
8421;SDS011;4248;48.196;10.924;2022-07-31T14:37:44;2.63;;;1.53;;
8421;SDS011;4248;48.196;10.924;2022-07-31T14:40:12;2.80;;;1.40;;
8421;SDS011;4248;48.196;10.924;2022-07-31T14:42:38;3.93;;;1.70;;
8421;SDS011;4248;48.196;10.924;2022-07-31T14:45:05;4.30;;;1.40;;
8421;SDS011;4248;48.196;10.924;2022-07-31T14:47:32;3.97;;;1.53;;
8421;SDS011;4248;48.196;10.924;2022-07-31T14:49:58;4.40;;;1.80;;
8421;SDS011;4248;48.196;10.924;2022-07-31T14:52:24;3.37;;;1.50;;
8421;SDS011;4248;48.196;10.924;2022-07-31T14:54:50;6.80;;;1.50;;
8421;SDS011;4248;48.196;10.924;2022-07-31T14:57:15;3.63;;;2.00;;
8421;SDS011;4248;48.196;10.924;2022-07-31T14:59:41;3.83;;;1.37;;
8421;SDS011;4248;48.196;10.924;2022-07-31T15:02:07;3.63;;;1.80;;
8421;SDS011;4248;48.196;10.924;2022-07-31T15:04:33;3.03;;;1.50;;
8421;SDS011;4248;48.196;10.924;2022-07-31T15:06:58;2.87;;;1.63;;
8421;SDS011;4248;48.196;10.924;2022-07-31T15:09:24;2.80;;;1.50;;
8421;SDS011;4248;48.196;10.924;2022-07-31T15:11:50;2.50;;;1.40;;
8421;SDS011;4248;48.196;10.924;2022-07-31T15:14:17;4.00;;;1.70;;
8421;SDS011;4248;48.196;10.924;2022-07-31T15:16:42;3.23;;;1.43;;
8421;SDS011;4248;48.196;10.924;2022-07-31T15:19:08;4.37;;;1.50;;